createdAt,value
2018-03-11T00:02:21.106Z,98460.87
2018-03-11T00:04:48.709Z,98461.30
2018-03-11T00:07:16.597Z,98454.24
2018-03-11T00:09:44.148Z,98452.02
2018-03-11T00:12:11.772Z,98454.89
2018-03-11T00:14:39.397Z,98452.02
2018-03-11T00:17:07.040Z,98449.95
2018-03-11T00:19:34.607Z,98444.78
2018-03-11T00:22:02.318Z,98438.13
2018-03-11T00:24:29.883Z,98436.95
2018-03-11T00:26:58.100Z,98429.83
2018-03-11T00:29:26.160Z,98428.31
2018-03-11T00:31:53.725Z,98413.82
2018-03-11T00:34:21.281Z,98417.22
2018-03-11T00:36:48.913Z,98416.02
2018-03-11T00:39:16.492Z,98414.97
2018-03-11T00:41:44.037Z,98416.45
2018-03-11T00:44:11.891Z,98414.77
2018-03-11T00:46:39.462Z,98418.06
2018-03-11T00:49:07.025Z,98414.05
2018-03-11T00:51:34.640Z,98405.39
2018-03-11T00:54:02.208Z,98405.06
2018-03-11T00:56:29.789Z,98401.13
2018-03-11T00:58:57.665Z,98402.76
2018-03-11T01:01:25.241Z,98410.06
2018-03-11T01:03:52.871Z,98415.42
2018-03-11T01:06:20.479Z,98420.53
2018-03-11T01:08:48.040Z,98434.19
2018-03-11T01:11:15.610Z,98424.24
2018-03-11T01:13:43.312Z,98430.48
2018-03-11T01:16:10.868Z,98427.28
2018-03-11T01:18:38.423Z,98422.50
2018-03-11T01:21:06.254Z,98420.14
2018-03-11T01:23:33.801Z,98424.91
2018-03-11T01:26:01.356Z,98419.27
2018-03-11T01:28:29.045Z,98418.56
2018-03-11T01:30:56.617Z,98419.55
2018-03-11T01:33:24.187Z,98423.25
2018-03-11T01:35:51.783Z,98425.08
2018-03-11T01:38:19.337Z,98424.63
2018-03-11T01:40:46.884Z,98428.72
2018-03-11T01:43:14.501Z,98428.34
2018-03-11T01:45:42.060Z,98422.23
2018-03-11T01:48:09.641Z,98414.22
2018-03-11T01:50:37.309Z,98409.08
2018-03-11T01:53:09.872Z,98404.02
2018-03-11T01:55:37.501Z,98392.63
2018-03-11T01:58:05.052Z,98402.55
2018-03-11T02:00:32.669Z,98407.44
2018-03-11T02:03:00.593Z,98403.52
2018-03-11T02:05:28.182Z,98407.66
2018-03-11T02:07:55.745Z,98405.95
2018-03-11T02:10:23.362Z,98414.16
2018-03-11T02:12:50.930Z,98414.76
2018-03-11T02:15:18.562Z,98419.73
2018-03-11T02:17:46.169Z,98422.27
2018-03-11T02:20:13.722Z,98431.79
2018-03-11T02:22:41.314Z,98426.38
2018-03-11T02:25:08.942Z,98427.50
2018-03-11T02:27:36.558Z,98430.48
2018-03-11T02:30:04.146Z,98439.61
2018-03-11T02:32:31.757Z,98443.77
2018-03-11T02:34:59.312Z,98442.14
2018-03-11T02:37:26.893Z,98444.97
2018-03-11T02:39:54.822Z,98442.80
2018-03-11T02:42:22.410Z,98436.00
2018-03-11T02:44:49.976Z,98439.91
2018-03-11T02:47:17.604Z,98434.95
2018-03-11T02:49:45.172Z,98437.84
2018-03-11T02:52:12.732Z,98436.09
2018-03-11T02:54:40.362Z,98436.88
2018-03-11T02:57:08.667Z,98433.25
2018-03-11T02:59:36.231Z,98438.00
2018-03-11T03:02:03.974Z,98437.68
2018-03-11T03:04:31.553Z,98439.13
2018-03-11T03:06:59.125Z,98438.98
2018-03-11T03:09:27.000Z,98442.42
2018-03-11T03:11:54.630Z,98451.19
2018-03-11T03:14:22.242Z,98454.82
2018-03-11T03:16:49.922Z,98449.69
2018-03-11T03:19:17.485Z,98451.20
2018-03-11T03:21:46.026Z,98441.53
2018-03-11T03:24:13.707Z,98444.00
2018-03-11T03:26:41.290Z,98437.07
2018-03-11T03:29:08.863Z,98441.45
2018-03-11T03:31:36.480Z,98437.07
2018-03-11T03:34:04.097Z,98425.63
2018-03-11T03:36:31.648Z,98418.05
2018-03-11T03:38:59.257Z,98417.73
2018-03-11T03:41:26.812Z,98415.03
2018-03-11T03:43:54.364Z,98413.19
2018-03-11T03:46:22.013Z,98427.56
2018-03-11T03:48:49.568Z,98417.53
2018-03-11T03:51:17.154Z,98416.25
2018-03-11T03:53:45.040Z,98421.30
2018-03-11T03:56:12.612Z,98428.80
2018-03-11T03:58:40.180Z,98437.05
2018-03-11T04:01:07.800Z,98445.39
2018-03-11T04:03:35.616Z,98446.46
2018-03-11T04:06:03.185Z,98440.75
2018-03-11T04:08:30.794Z,98432.69
2018-03-11T04:10:58.363Z,98428.88
2018-03-11T04:13:25.936Z,98429.81
2018-03-11T04:15:53.533Z,98434.47
2018-03-11T04:18:21.092Z,98436.33
2018-03-11T04:20:48.686Z,98448.61
2018-03-11T04:23:16.633Z,98436.88
2018-03-11T04:25:44.197Z,98425.66
2018-03-11T04:28:11.791Z,98427.34
2018-03-11T04:30:39.416Z,98433.05
2018-03-11T04:33:06.975Z,98433.67
2018-03-11T04:35:34.642Z,98441.84
2018-03-11T04:38:02.242Z,98439.58
2018-03-11T04:40:29.788Z,98431.45
2018-03-11T04:42:57.343Z,98435.98
2018-03-11T04:45:24.964Z,98436.23
2018-03-11T04:47:52.542Z,98439.43
2018-03-11T04:50:20.168Z,98444.08
2018-03-11T04:52:47.781Z,98450.19
2018-03-11T04:55:15.393Z,98442.31
2018-03-11T04:57:42.944Z,98442.47
2018-03-11T05:00:10.594Z,98452.50
2018-03-11T05:02:38.143Z,98455.27
2018-03-11T05:05:05.760Z,98449.88
2018-03-11T05:07:33.672Z,98454.84
2018-03-11T05:10:01.238Z,98456.67
2018-03-11T05:12:28.789Z,98452.29
2018-03-11T05:14:56.392Z,98456.58
2018-03-11T05:17:23.962Z,98465.48
2018-03-11T05:19:51.527Z,98466.89
2018-03-11T05:22:19.125Z,98471.05
2018-03-11T05:24:46.694Z,98482.32
2018-03-11T05:27:14.269Z,98479.02
2018-03-11T05:29:41.891Z,98477.01
2018-03-11T05:32:09.458Z,98470.59
2018-03-11T05:34:37.022Z,98471.02
2018-03-11T05:37:04.639Z,98470.30
2018-03-11T05:39:32.270Z,98476.16
2018-03-11T05:41:59.892Z,98471.63
2018-03-11T05:44:27.666Z,98481.59
2018-03-11T05:46:55.250Z,98484.36
2018-03-11T05:49:22.820Z,98479.78
2018-03-11T05:51:50.451Z,98490.48
2018-03-11T05:54:18.018Z,98486.93
2018-03-11T05:56:45.580Z,98486.58
2018-03-11T05:59:13.217Z,98486.47
2018-03-11T06:01:40.838Z,98478.00
2018-03-11T06:04:08.409Z,98488.06
2018-03-11T06:06:36.315Z,98488.98
2018-03-11T06:09:04.042Z,98495.30
2018-03-11T06:11:32.401Z,98494.23
2018-03-11T06:14:00.020Z,98501.92
2018-03-11T06:16:27.597Z,98498.28
2018-03-11T06:18:55.820Z,98496.71
2018-03-11T06:21:23.454Z,98490.60
2018-03-11T06:23:51.109Z,98494.52
2018-03-11T06:26:18.753Z,98493.52
2018-03-11T06:28:46.369Z,98496.02
2018-03-11T06:31:13.945Z,98496.34
2018-03-11T06:33:41.527Z,98503.73
2018-03-11T06:36:09.175Z,98496.98
2018-03-11T06:38:36.837Z,98500.86
2018-03-11T06:41:04.407Z,98499.73
2018-03-11T06:43:32.329Z,98499.88
2018-03-11T06:45:59.934Z,98500.80
2018-03-11T06:48:27.506Z,98501.73
2018-03-11T06:50:55.411Z,98501.47
2018-03-11T06:53:23.061Z,98505.83
2018-03-11T06:55:50.637Z,98516.80
2018-03-11T06:58:18.265Z,98518.80
2018-03-11T07:00:45.823Z,98521.20
2018-03-11T07:03:13.462Z,98523.49
2018-03-11T07:05:41.718Z,98524.05
2018-03-11T07:08:09.445Z,98522.45
2018-03-11T07:10:37.024Z,98528.65
2018-03-11T07:13:04.645Z,98526.09
2018-03-11T07:15:32.282Z,98526.45
2018-03-11T07:17:59.864Z,98527.22
2018-03-11T07:20:27.497Z,98533.02
2018-03-11T07:22:55.070Z,98534.48
2018-03-11T07:25:22.636Z,98529.75
2018-03-11T07:27:50.294Z,98524.25
2018-03-11T07:30:17.928Z,98526.70
2018-03-11T07:32:45.480Z,98527.38
2018-03-11T07:35:13.133Z,98532.36
2018-03-11T07:37:41.340Z,98534.11
2018-03-11T07:40:08.924Z,98527.01
2018-03-11T07:42:36.618Z,98534.48
2018-03-11T07:45:04.220Z,98530.44
2018-03-11T07:47:31.792Z,98535.23
2018-03-11T07:49:59.413Z,98534.17
2018-03-11T07:52:26.985Z,98537.47
2018-03-11T07:54:54.572Z,98542.99
2018-03-11T07:57:22.198Z,98548.19
2018-03-11T07:59:50.370Z,98542.16
2018-03-11T08:02:17.953Z,98539.63
2018-03-11T08:04:46.544Z,98546.72
2018-03-11T08:07:14.138Z,98546.09
2018-03-11T08:09:41.953Z,98550.00
2018-03-11T08:12:09.582Z,98551.70
2018-03-11T08:14:37.178Z,98553.35
2018-03-11T08:17:04.764Z,98552.14
2018-03-11T08:19:32.382Z,98548.57
2018-03-11T08:21:59.971Z,98560.10
2018-03-11T08:24:27.551Z,98553.95
2018-03-11T08:26:55.187Z,98552.95
2018-03-11T08:29:22.756Z,98554.30
2018-03-11T08:31:50.348Z,98547.30
2018-03-11T08:34:17.999Z,98547.61
2018-03-11T08:36:45.580Z,98543.59
2018-03-11T08:39:13.165Z,98547.34
2018-03-11T08:41:40.810Z,98549.91
2018-03-11T08:44:08.390Z,98543.46
2018-03-11T08:46:35.985Z,98545.73
2018-03-11T08:49:03.604Z,98542.23
2018-03-11T08:51:31.180Z,98537.27
2018-03-11T08:53:58.770Z,98537.72
2018-03-11T08:56:26.397Z,98539.67
2018-03-11T08:58:53.956Z,98539.63
2018-03-11T09:01:21.519Z,98537.79
2018-03-11T09:03:49.206Z,98533.72
2018-03-11T09:06:16.784Z,98536.41
2018-03-11T09:08:44.349Z,98533.67
2018-03-11T09:11:12.502Z,98526.77
2018-03-11T09:13:40.124Z,98526.94
2018-03-11T09:16:07.740Z,98530.41
2018-03-11T09:18:35.420Z,98529.71
2018-03-11T09:21:02.985Z,98533.20
2018-03-11T09:23:30.548Z,98532.20
2018-03-11T09:25:58.162Z,98529.30
2018-03-11T09:28:25.822Z,98539.31
2018-03-11T09:30:53.392Z,98533.09
2018-03-11T09:33:21.010Z,98525.69
2018-03-11T09:35:48.590Z,98528.45
2018-03-11T09:38:16.173Z,98523.33
2018-03-11T09:40:43.813Z,98522.13
2018-03-11T09:43:11.389Z,98518.97
2018-03-11T09:45:38.962Z,98523.25
2018-03-11T09:48:06.798Z,98512.59
2018-03-11T09:50:34.370Z,98515.03
2018-03-11T09:53:01.941Z,98515.56
2018-03-11T09:55:29.561Z,98514.40
2018-03-11T09:57:57.136Z,98513.84
2018-03-11T10:00:25.571Z,98512.61
2018-03-11T10:02:53.201Z,98505.38
2018-03-11T10:05:20.772Z,98512.40
2018-03-11T10:07:48.403Z,98508.77
2018-03-11T10:10:16.022Z,98491.45
2018-03-11T10:12:44.076Z,98490.38
2018-03-11T10:15:11.706Z,98490.64
2018-03-11T10:17:39.335Z,98485.39
2018-03-11T10:20:06.949Z,98485.48
2018-03-11T10:22:34.517Z,98486.35
2018-03-11T10:25:02.415Z,98485.61
2018-03-11T10:27:30.004Z,98478.23
2018-03-11T10:29:57.582Z,98474.02
2018-03-11T10:32:25.203Z,98472.91
2018-03-11T10:34:52.851Z,98473.10
2018-03-11T10:37:21.058Z,98475.62
2018-03-11T10:39:48.786Z,98468.60
2018-03-11T10:42:16.340Z,98464.59
2018-03-11T10:44:43.979Z,98463.16
2018-03-11T10:47:11.652Z,98460.05
2018-03-11T10:49:39.210Z,98459.41
2018-03-11T10:52:06.775Z,98454.66
2018-03-11T10:54:34.458Z,98441.16
2018-03-11T10:57:02.049Z,98443.75
2018-03-11T10:59:29.606Z,98450.95
2018-03-11T11:02:16.781Z,98443.34
2018-03-11T11:04:49.864Z,98432.00
2018-03-11T11:07:17.725Z,98429.80
2018-03-11T11:09:45.289Z,98428.59
2018-03-11T11:12:12.837Z,98423.90
2018-03-11T11:14:40.540Z,98413.13
2018-03-11T11:17:08.102Z,98414.77
2018-03-11T11:19:35.655Z,98411.91
2018-03-11T11:22:03.317Z,98411.53
2018-03-11T11:24:30.875Z,98412.43
2018-03-11T11:26:59.382Z,98402.53
2018-03-11T11:29:26.998Z,98406.13
2018-03-11T11:31:54.618Z,98403.74
2018-03-11T11:34:22.188Z,98403.83
2018-03-11T11:36:49.813Z,98392.33
2018-03-11T11:39:17.372Z,98390.25
2018-03-11T11:41:44.920Z,98388.44
2018-03-11T11:44:12.534Z,98391.58
2018-03-11T11:46:40.122Z,98379.42
2018-03-11T11:49:07.707Z,98379.13
2018-03-11T11:51:35.419Z,98372.79
2018-03-11T11:54:02.970Z,98376.77
2018-03-11T11:56:30.544Z,98375.62
2018-03-11T11:58:58.245Z,98372.36
2018-03-11T12:01:26.418Z,98371.03
2018-03-11T12:03:53.972Z,98366.75
2018-03-11T12:06:21.595Z,98365.23
2018-03-11T12:08:49.166Z,98362.87
2018-03-11T12:11:16.742Z,98359.17
2018-03-11T12:13:44.356Z,98363.73
2018-03-11T12:16:12.881Z,98355.66
2018-03-11T12:18:40.442Z,98358.26
2018-03-11T12:21:08.334Z,98348.05
2018-03-11T12:23:35.888Z,98347.48
2018-03-11T12:26:03.482Z,98353.25
2018-03-11T12:28:31.145Z,98349.13
2018-03-11T12:30:58.706Z,98340.77
2018-03-11T12:33:26.327Z,98344.02
2018-03-11T12:35:53.960Z,98349.70
2018-03-11T12:38:21.604Z,98341.88
2018-03-11T12:40:49.173Z,98343.17
2018-03-11T12:43:16.805Z,98339.95
2018-03-11T12:45:44.437Z,98336.78
2018-03-11T12:48:11.988Z,98338.88
2018-03-11T12:50:39.826Z,98330.89
2018-03-11T12:53:07.405Z,98332.65
2018-03-11T12:55:34.968Z,98323.91
2018-03-11T12:58:03.424Z,98328.26
2018-03-11T13:00:30.986Z,98323.94
2018-03-11T13:02:58.563Z,98324.37
2018-03-11T13:05:26.175Z,98327.06
2018-03-11T13:07:53.733Z,98322.13
2018-03-11T13:10:21.296Z,98321.02
2018-03-11T13:12:48.906Z,98309.91
2018-03-11T13:15:16.480Z,98314.00
2018-03-11T13:17:44.494Z,98318.46
2018-03-11T13:20:24.085Z,98311.05
2018-03-11T13:22:51.657Z,98314.16
2018-03-11T13:25:19.293Z,98303.80
2018-03-11T13:27:59.096Z,98304.59
2018-03-11T13:30:26.662Z,98305.87
2018-03-11T13:33:06.051Z,98297.80
2018-03-11T13:35:33.689Z,98291.23
2018-03-11T13:38:12.922Z,98298.10
2018-03-11T13:40:41.512Z,98300.64
2018-03-11T13:43:09.213Z,98294.48
2018-03-11T13:45:48.417Z,98297.11
2018-03-11T13:48:16.070Z,98295.53
2018-03-11T13:50:43.637Z,98292.88
2018-03-11T13:53:23.121Z,98302.73
2018-03-11T13:55:50.796Z,98293.34
2018-03-11T13:58:24.402Z,98292.96
2018-03-11T14:00:52.031Z,98293.37
2018-03-11T14:03:19.584Z,98292.84
2018-03-11T14:05:47.229Z,98287.30
2018-03-11T14:08:14.798Z,98292.33
2018-03-11T14:10:42.364Z,98294.14
2018-03-11T14:13:10.003Z,98296.35
2018-03-11T14:15:37.582Z,98296.55
2018-03-11T14:18:05.438Z,98293.73
2018-03-11T14:20:33.052Z,98292.78
2018-03-11T14:23:00.706Z,98283.42
2018-03-11T14:25:28.277Z,98283.48
2018-03-11T14:27:55.970Z,98289.87
2018-03-11T14:30:23.534Z,98296.95
2018-03-11T14:32:51.125Z,98293.30
2018-03-11T14:35:18.749Z,98292.13
2018-03-11T14:37:46.327Z,98287.06
2018-03-11T14:40:13.937Z,98292.20
2018-03-11T14:42:41.849Z,98293.53
2018-03-11T14:45:09.447Z,98290.31
2018-03-11T14:47:37.030Z,98290.39
2018-03-11T14:50:04.685Z,98291.48
2018-03-11T14:52:32.326Z,98289.55
2018-03-11T14:54:59.946Z,98285.39
2018-03-11T14:57:27.554Z,98288.06
2018-03-11T14:59:55.137Z,98291.22
2018-03-11T15:02:22.699Z,98289.36
2018-03-11T15:04:50.313Z,98294.67
2018-03-11T15:07:17.888Z,98298.89
2018-03-11T15:09:45.455Z,98297.30
2018-03-11T15:12:13.132Z,98293.49
2018-03-11T15:14:40.706Z,98286.99
2018-03-11T15:17:08.310Z,98294.16
2018-03-11T15:19:36.305Z,98290.17
2018-03-11T15:22:03.924Z,98289.25
2018-03-11T15:24:31.498Z,98291.98
2018-03-11T15:26:59.134Z,98295.45
2018-03-11T15:29:26.702Z,98292.59
2018-03-11T15:31:54.314Z,98297.83
2018-03-11T15:34:21.937Z,98289.14
2018-03-11T15:36:49.493Z,98299.89
2018-03-11T15:39:17.126Z,98296.74
2018-03-11T15:41:44.750Z,98302.29
2018-03-11T15:44:12.312Z,98296.19
2018-03-11T15:46:39.882Z,98294.52
2018-03-11T15:49:07.607Z,98297.96
2018-03-11T15:51:35.214Z,98300.39
2018-03-11T15:54:02.787Z,98299.98
2018-03-11T15:56:30.703Z,98304.27
2018-03-11T15:58:58.299Z,98309.27
2018-03-11T16:01:25.861Z,98303.54
2018-03-11T16:03:53.486Z,98307.91
2018-03-11T16:06:21.053Z,98303.11
2018-03-11T16:08:48.618Z,98307.32
2018-03-11T16:11:16.237Z,98301.11
2018-03-11T16:13:44.685Z,98306.45
2018-03-11T16:16:12.256Z,98309.91
2018-03-11T16:18:39.860Z,98310.77
2018-03-11T16:21:07.453Z,98314.02
2018-03-11T16:23:35.013Z,98307.81
2018-03-11T16:26:02.695Z,98307.48
2018-03-11T16:28:30.295Z,98308.44
2018-03-11T16:30:57.982Z,98310.22
2018-03-11T16:33:25.805Z,98309.70
2018-03-11T16:35:53.475Z,98308.50
2018-03-11T16:38:21.049Z,98316.84
2018-03-11T16:40:48.686Z,98322.43
2018-03-11T16:43:16.267Z,98318.41
2018-03-11T16:45:43.874Z,98318.22
2018-03-11T16:48:11.517Z,98317.17
2018-03-11T16:50:39.158Z,98326.83
2018-03-11T16:53:06.773Z,98324.37
2018-03-11T16:55:34.395Z,98328.42
2018-03-11T16:58:02.071Z,98332.67
2018-03-11T17:00:29.632Z,98336.31
2018-03-11T17:02:57.268Z,98338.35
2018-03-11T17:05:24.832Z,98332.20
2018-03-11T17:07:52.424Z,98342.44
2018-03-11T17:10:20.118Z,98346.52
2018-03-11T17:12:47.696Z,98352.19
2018-03-11T17:15:15.340Z,98356.61
2018-03-11T17:17:43.119Z,98357.89
2018-03-11T17:20:10.705Z,98354.26
2018-03-11T17:22:38.469Z,98365.77
2018-03-11T17:25:06.109Z,98367.05
2018-03-11T17:27:33.707Z,98362.10
2018-03-11T17:30:01.379Z,98365.97
2018-03-11T17:32:28.981Z,98370.80
2018-03-11T17:34:56.560Z,98378.00
2018-03-11T17:37:24.228Z,98381.22
2018-03-11T17:39:51.991Z,98373.50
2018-03-11T17:42:20.367Z,98373.48
2018-03-11T17:44:48.042Z,98377.97
2018-03-11T17:47:16.265Z,98381.58
2018-03-11T17:49:43.903Z,98391.97
2018-03-11T17:52:11.594Z,98390.38
2018-03-11T17:54:39.293Z,98393.50
2018-03-11T17:57:06.939Z,98389.52
2018-03-11T17:59:34.795Z,98391.67
2018-03-11T18:02:02.644Z,98399.06
2018-03-11T18:04:30.530Z,98399.47
2018-03-11T18:06:58.280Z,98401.02
2018-03-11T18:09:26.203Z,98403.91
2018-03-11T18:11:53.921Z,98402.95
2018-03-11T18:14:21.802Z,98403.04
2018-03-11T18:16:49.994Z,98400.14
2018-03-11T18:19:18.475Z,98404.92
2018-03-11T18:21:46.340Z,98405.14
2018-03-11T18:24:14.446Z,98401.69
2018-03-11T18:26:42.351Z,98409.48
2018-03-11T18:29:10.242Z,98408.55
2018-03-11T18:31:38.148Z,98405.92
2018-03-11T18:34:06.030Z,98409.45
2018-03-11T18:36:33.870Z,98403.70
2018-03-11T18:39:01.777Z,98405.04
2018-03-11T18:41:29.686Z,98402.34
2018-03-11T18:43:57.464Z,98405.29
2018-03-11T18:46:25.291Z,98405.98
2018-03-11T18:48:53.139Z,98409.92
2018-03-11T18:51:20.935Z,98405.88
2018-03-11T18:53:48.860Z,98403.69
2018-03-11T18:56:16.695Z,98402.45
2018-03-11T18:58:44.485Z,98401.89
2018-03-11T19:01:12.607Z,98401.55
2018-03-11T19:03:40.518Z,98402.38
2018-03-11T19:06:08.363Z,98407.37
2018-03-11T19:08:36.298Z,98412.16
2018-03-11T19:11:04.150Z,98404.47
2018-03-11T19:13:32.044Z,98397.85
2018-03-11T19:16:00.029Z,98401.84
2018-03-11T19:18:27.952Z,98393.67
2018-03-11T19:20:55.768Z,98405.89
2018-03-11T19:23:23.672Z,98407.73
2018-03-11T19:25:51.608Z,98401.73
2018-03-11T19:28:19.500Z,98409.64
2018-03-11T19:30:47.358Z,98411.21
2018-03-11T19:33:15.230Z,98412.33
2018-03-11T19:35:44.927Z,98410.95
2018-03-11T19:38:13.089Z,98419.28
2018-03-11T19:40:40.958Z,98417.69
2018-03-11T19:43:08.890Z,98414.77
2018-03-11T19:45:36.882Z,98424.91
2018-03-11T19:48:04.832Z,98429.06
2018-03-11T19:50:32.693Z,98432.72
2018-03-11T19:53:00.678Z,98428.88
2018-03-11T19:55:28.550Z,98430.56
2018-03-11T19:57:56.398Z,98439.49
2018-03-11T20:00:24.323Z,98443.19
2018-03-11T20:02:52.244Z,98442.73
2018-03-11T20:05:20.100Z,98438.35
2018-03-11T20:07:48.612Z,98441.20
2018-03-11T20:10:16.466Z,98434.05
2018-03-11T20:12:44.307Z,98433.17
2018-03-11T20:15:12.182Z,98435.79
2018-03-11T20:17:40.072Z,98435.16
2018-03-11T20:20:07.942Z,98432.78
2018-03-11T20:22:36.092Z,98444.25
2018-03-11T20:25:03.906Z,98443.95
2018-03-11T20:27:31.725Z,98442.22
2018-03-11T20:29:59.547Z,98438.41
2018-03-11T20:32:27.215Z,98437.17
2018-03-11T20:34:54.830Z,98436.84
2018-03-11T20:37:22.484Z,98434.13
2018-03-11T20:39:50.057Z,98435.91
2018-03-11T20:42:17.732Z,98433.87
2018-03-11T20:44:45.436Z,98433.20
2018-03-11T20:47:13.008Z,98435.73
2018-03-11T20:49:40.656Z,98437.41
2018-03-11T20:52:08.526Z,98433.36
2018-03-11T20:54:36.096Z,98434.91
2018-03-11T20:57:03.667Z,98434.90
2018-03-11T20:59:31.362Z,98440.68
2018-03-11T21:01:58.949Z,98433.91
2018-03-11T21:04:26.541Z,98443.92
2018-03-11T21:06:54.163Z,98444.90
2018-03-11T21:09:21.745Z,98454.41
2018-03-11T21:11:49.303Z,98455.89
2018-03-11T21:14:16.920Z,98451.89
2018-03-11T21:16:44.485Z,98459.06
2018-03-11T21:19:12.141Z,98454.77
2018-03-11T21:21:39.766Z,98455.19
2018-03-11T21:24:07.350Z,98456.66
2018-03-11T21:26:34.925Z,98447.66
2018-03-11T21:29:02.985Z,98453.75
2018-03-11T21:31:30.545Z,98448.22
2018-03-11T21:33:58.144Z,98443.92
2018-03-11T21:36:25.793Z,98444.38
2018-03-11T21:38:53.373Z,98439.82
2018-03-11T21:41:20.935Z,98443.31
2018-03-11T21:43:48.543Z,98434.74
2018-03-11T21:46:16.120Z,98432.71
2018-03-11T21:48:43.696Z,98426.17
2018-03-11T21:51:11.322Z,98427.85
2018-03-11T21:53:38.916Z,98424.05
2018-03-11T21:56:06.508Z,98424.30
2018-03-11T21:58:34.143Z,98426.28
2018-03-11T22:01:01.783Z,98427.93
2018-03-11T22:03:30.177Z,98427.42
2018-03-11T22:05:58.059Z,98428.17
2018-03-11T22:08:25.720Z,98425.56
2018-03-11T22:10:53.289Z,98428.56
2018-03-11T22:13:20.920Z,98431.82
2018-03-11T22:15:50.338Z,98428.74
2018-03-11T22:18:17.924Z,98434.28
2018-03-11T22:20:45.549Z,98430.57
2018-03-11T22:23:13.100Z,98429.27
2018-03-11T22:25:40.665Z,98422.27
2018-03-11T22:28:08.400Z,98418.26
2018-03-11T22:30:36.209Z,98416.16
2018-03-11T22:33:03.850Z,98420.25
2018-03-11T22:35:31.534Z,98425.63
2018-03-11T22:37:59.937Z,98418.87
2018-03-11T22:40:27.507Z,98412.50
2018-03-11T22:42:55.465Z,98407.27
2018-03-11T22:45:23.133Z,98407.13
2018-03-11T22:47:50.711Z,98400.37
2018-03-11T22:50:18.640Z,98397.45
2018-03-11T22:52:46.254Z,98393.59
2018-03-11T22:55:13.924Z,98391.89
2018-03-11T22:57:41.560Z,98388.43
2018-03-11T23:00:09.186Z,98398.38
2018-03-11T23:02:36.757Z,98408.19
2018-03-11T23:05:04.480Z,98408.06
2018-03-11T23:07:32.045Z,98408.41
2018-03-11T23:09:59.637Z,98405.38
2018-03-11T23:12:27.327Z,98408.63
2018-03-11T23:14:54.912Z,98407.87
2018-03-11T23:17:22.476Z,98405.92
2018-03-11T23:19:50.072Z,98410.81
2018-03-11T23:22:17.656Z,98401.62
2018-03-11T23:24:45.234Z,98405.83
2018-03-11T23:27:13.087Z,98403.00
2018-03-11T23:29:40.684Z,98401.19
2018-03-11T23:32:08.374Z,98396.03
2018-03-11T23:34:35.987Z,98388.59
2018-03-11T23:37:03.556Z,98395.25
2018-03-11T23:39:31.116Z,98400.34
2018-03-11T23:41:58.728Z,98395.28
2018-03-11T23:44:26.284Z,98391.96
2018-03-11T23:46:53.845Z,98387.45
2018-03-11T23:49:21.494Z,98385.91
2018-03-11T23:51:49.048Z,98390.91
2018-03-11T23:54:16.630Z,98386.20
2018-03-11T23:56:44.231Z,98394.83
2018-03-11T23:59:11.798Z,98389.38
